Time;durP1;ratioP1;P1;durP2;ratioP2;P2;SDS_P1;SDS_P2;PMS_P1;PMS_P2;Temp;Humidity;BMP_temperature;BMP_pressure;BME280_temperature;BME280_humidity;BME280_pressure;Samples;Min_cycle;Max_cycle;Signal;HPM_P1;HPM_P2
2022/06/01 00:00:23;;;;;;;0.47;0.47;;;11.10;1.40;;;11.71;100.00;95227.36;646440;216;31494;-75
2022/06/01 00:03:04;;;;;;;0.40;0.30;;;10.90;1.40;;;11.66;100.00;95225.66;646965;212;31513;-74
2022/06/01 00:05:46;;;;;;;0.40;0.40;;;10.70;1.40;;;11.56;100.00;95226.11;645847;216;31664;-75
2022/06/01 00:08:28;;;;;;;0.50;0.30;;;10.60;1.40;;;11.54;100.00;95219.27;645445;216;31524;-75
2022/06/01 00:11:10;;;;;;;0.40;0.20;;;10.70;1.40;;;11.54;100.00;95222.09;647472;212;31498;-74
2022/06/01 00:13:51;;;;;;;0.80;0.30;;;10.70;1.40;;;11.62;100.00;95220.81;631453;222;32080;-75
2022/06/01 00:16:33;;;;;;;0.40;0.30;;;10.80;1.40;;;11.66;100.00;95224.68;647409;216;42165;-75
2022/06/01 00:19:15;;;;;;;0.40;0.20;;;10.90;1.40;;;11.63;100.00;95220.19;646917;216;37044;-75
2022/06/01 00:24:43;;;;;;;0.40;0.20;;;11.00;1.40;;;11.73;100.00;95215.03;647087;216;31498;-75
2022/06/01 00:27:31;;;;;;;0.40;0.20;;;11.00;1.40;;;11.87;100.00;95224.80;644226;214;31575;-79
2022/06/01 00:30:19;;;;;;;0.60;0.30;;;11.10;1.40;;;11.95;100.00;95221.37;646846;212;31781;-75
2022/06/01 00:33:01;;;;;;;0.40;0.30;;;11.30;1.40;;;12.02;100.00;95221.97;618936;222;31864;-75
2022/06/01 00:35:51;;;;;;;0.50;0.40;;;11.20;1.40;;;12.11;100.00;95222.58;646917;212;31746;-76
2022/06/01 00:38:32;;;;;;;0.40;0.30;;;11.40;1.40;;;12.31;100.00;95220.91;647006;216;32073;-75
2022/06/01 00:41:15;;;;;;;0.40;0.20;;;11.60;1.40;;;12.40;100.00;95222.35;619238;222;32115;-75
2022/06/01 00:43:56;;;;;;;1.50;0.52;;;11.70;1.40;;;12.37;100.00;95223.08;646116;216;31805;-75
2022/06/01 00:46:38;;;;;;;2.00;0.37;;;11.70;1.40;;;12.33;100.00;95221.81;646391;212;32336;-76
2022/06/01 00:49:22;;;;;;;0.40;0.40;;;11.60;1.40;;;12.43;100.00;95221.16;646923;212;42102;-76
2022/06/01 00:52:04;;;;;;;0.70;0.50;;;11.70;1.40;;;12.37;100.00;95225.97;632433;222;31749;-75
2022/06/01 00:54:46;;;;;;;0.40;0.20;;;11.60;1.40;;;12.32;100.00;95225.33;647061;216;32696;-76
2022/06/01 00:57:28;;;;;;;0.40;0.33;;;11.50;1.40;;;12.30;100.00;95224.35;647669;216;32082;-75
2022/06/01 01:00:13;;;;;;;1.10;0.50;;;11.50;1.40;;;12.30;100.00;95229.41;646927;216;32051;-75
2022/06/01 01:03:01;;;;;;;0.57;0.30;;;11.50;1.40;;;12.21;100.00;95226.04;648399;216;32136;-78
2022/06/01 01:05:48;;;;;;;0.80;0.30;;;11.40;1.40;;;12.16;100.00;95229.66;646520;216;31644;-76
2022/06/01 01:08:36;;;;;;;0.60;0.30;;;11.40;1.40;;;12.22;100.00;95227.73;614718;222;32107;-78
2022/06/01 01:11:26;;;;;;;0.50;0.40;;;11.50;1.40;;;12.41;100.00;95226.59;646077;216;31522;-76
2022/06/01 01:14:08;;;;;;;2.00;0.50;;;11.70;1.40;;;12.45;100.00;95229.59;647455;212;31591;-76
2022/06/01 01:16:50;;;;;;;0.40;0.30;;;11.70;1.40;;;12.43;100.00;95232.37;647495;216;31505;-76
2022/06/01 01:19:34;;;;;;;0.70;0.60;;;11.70;1.40;;;12.51;100.00;95226.86;646056;216;31469;-76
2022/06/01 01:22:19;;;;;;;0.40;0.40;;;11.80;1.40;;;12.57;100.00;95230.57;646647;216;31467;-76
2022/06/01 01:25:24;;;;;;;1.30;0.40;;;11.80;1.40;;;12.50;100.00;95228.23;619543;226;42618;-78
2022/06/01 01:28:11;;;;;;;0.60;0.40;;;11.60;1.40;;;12.39;100.00;95228.53;646250;212;31600;-75
2022/06/01 01:31:13;;;;;;;0.50;0.40;;;11.50;1.40;;;12.29;100.00;95230.41;647236;216;34464;-74
2022/06/01 01:35:51;;;;;;;0.47;0.40;;;11.30;1.40;;;12.14;100.00;95227.77;645560;215;42119;-74
2022/06/01 01:38:50;;;;;;;0.40;0.40;;;11.30;1.40;;;12.15;100.00;95221.59;647479;216;31488;-74
2022/06/01 01:41:32;;;;;;;0.65;0.45;;;11.30;1.40;;;12.22;100.00;95230.72;646218;216;31498;-74
2022/06/01 01:44:18;;;;;;;1.50;0.60;;;11.40;1.40;;;12.07;100.00;95235.13;647544;212;31670;-76
2022/06/01 01:47:00;;;;;;;0.80;0.30;;;11.20;1.40;;;12.04;100.00;95230.08;647360;216;31513;-75
2022/06/01 01:49:41;;;;;;;0.40;0.30;;;11.20;1.40;;;11.94;100.00;95231.34;645981;216;42110;-74
2022/06/01 01:52:23;;;;;;;0.80;0.60;;;11.10;1.40;;;11.89;100.00;95235.39;647465;216;31499;-74
2022/06/01 01:55:07;;;;;;;0.40;0.23;;;11.10;1.40;;;11.87;100.00;95236.36;646173;212;31507;-74
2022/06/01 01:58:18;;;;;;;0.40;0.30;;;11.10;1.40;;;11.85;100.00;95237.09;646193;212;31651;-75
2022/06/01 02:02:35;;;;;;;0.60;0.55;;;10.90;1.40;;;11.63;100.00;95239.58;618700;222;31823;-75
2022/06/01 02:08:29;;;;;;;0.43;0.40;;;10.80;1.40;;;11.61;100.00;95244.91;646752;212;31540;-75
2022/06/01 02:14:02;;;;;;;0.50;0.40;;;10.90;1.40;;;11.61;100.00;95239.59;646689;212;31608;-74
2022/06/01 02:16:44;;;;;;;2.90;0.60;;;10.80;1.40;;;11.62;100.00;95241.90;646355;215;31498;-74
2022/06/01 02:19:25;;;;;;;0.70;0.50;;;10.80;1.40;;;11.63;100.00;95237.48;646691;216;31500;-75
2022/06/01 02:22:08;;;;;;;0.40;0.30;;;10.80;1.40;;;11.55;100.00;95240.87;631761;222;31702;-75
2022/06/01 02:24:49;;;;;;;0.60;0.40;;;10.70;1.40;;;11.52;100.00;95237.86;646411;216;31731;-74
2022/06/01 02:27:30;;;;;;;0.60;0.47;;;10.70;1.40;;;11.50;100.00;95236.02;647611;216;31493;-74
2022/06/01 02:30:16;;;;;;;0.70;0.60;;;10.70;1.40;;;11.43;100.00;95241.22;647073;216;33417;-75
2022/06/01 02:32:57;;;;;;;0.57;0.43;;;10.60;1.40;;;11.49;100.00;95235.17;646548;216;31542;-75
2022/06/01 02:35:51;;;;;;;0.60;0.40;;;10.70;1.40;;;11.56;100.00;95231.21;646113;212;31505;-75
2022/06/01 02:38:40;;;;;;;0.50;0.40;;;10.80;1.40;;;11.58;100.00;95228.98;647342;212;31611;-75
2022/06/01 02:44:12;;;;;;;0.70;0.40;;;10.60;1.40;;;11.37;100.00;95231.69;646700;216;31466;-74
2022/06/01 02:46:54;;;;;;;0.50;0.40;;;10.40;1.40;;;11.11;100.00;95234.31;646998;212;32268;-75
2022/06/01 02:49:36;;;;;;;0.50;0.50;;;10.10;1.40;;;11.02;100.00;95234.21;647947;216;31480;-74
2022/06/01 02:52:17;;;;;;;0.50;0.30;;;9.90;1.40;;;10.97;100.00;95230.13;646083;216;31518;-75
2022/06/01 02:54:59;;;;;;;0.90;0.43;;;9.80;1.40;;;10.91;100.00;95231.56;646974;212;32313;-75
2022/06/01 02:57:41;;;;;;;0.40;0.35;;;9.80;1.40;;;10.88;100.00;95232.02;647954;216;31507;-75
2022/06/01 03:00:23;;;;;;;0.40;0.30;;;9.80;1.40;;;10.87;100.00;95235.80;647409;216;31614;-75
2022/06/01 03:03:08;;;;;;;0.70;0.30;;;9.80;1.40;;;10.82;100.00;95239.41;646788;216;32133;-76
2022/06/01 03:05:49;;;;;;;0.77;0.45;;;9.70;1.40;;;10.79;100.00;95234.09;646840;216;42952;-75
2022/06/01 03:08:34;;;;;;;0.57;0.40;;;9.70;1.40;;;10.84;100.00;95234.39;617068;222;32019;-75
2022/06/01 03:11:16;;;;;;;0.50;0.40;;;9.70;1.40;;;10.89;100.00;95236.59;646741;216;42136;-75
2022/06/01 03:13:57;;;;;;;0.55;0.47;;;9.80;1.40;;;10.91;100.00;95235.41;646832;212;34264;-75
2022/06/01 03:16:40;;;;;;;0.62;0.50;;;9.90;1.40;;;10.97;100.00;95238.26;646025;216;31481;-75
2022/06/01 03:19:21;;;;;;;0.50;0.40;;;10.00;1.40;;;11.05;100.00;95237.83;646068;216;31525;-75
2022/06/01 03:22:06;;;;;;;0.60;0.50;;;10.10;1.40;;;11.10;100.00;95238.47;646984;213;31482;-75
2022/06/01 03:24:48;;;;;;;0.50;0.37;;;10.20;1.40;;;11.15;100.00;95238.58;645989;216;31724;-75
2022/06/01 03:27:29;;;;;;;0.52;0.30;;;10.20;1.40;;;11.23;100.00;95238.88;646610;212;31493;-75
2022/06/01 03:30:15;;;;;;;0.80;0.50;;;10.30;1.40;;;11.29;100.00;95242.99;646442;216;31509;-74
2022/06/01 03:32:56;;;;;;;0.73;0.60;;;10.30;1.40;;;11.33;100.00;95242.63;647202;212;42673;-76
2022/06/01 03:35:52;;;;;;;2.20;0.30;;;10.30;1.40;;;11.41;100.00;95251.05;647081;212;31560;-76
2022/06/01 03:38:34;;;;;;;0.50;0.40;;;10.40;1.40;;;11.53;100.00;95248.61;646553;216;31512;-75
2022/06/01 03:41:15;;;;;;;3.00;0.40;;;10.60;1.40;;;11.62;100.00;95247.88;619662;226;31936;-75
2022/06/01 03:46:47;;;;;;;0.60;0.50;;;10.80;1.40;;;11.79;100.00;95243.74;646284;216;31497;-74
2022/06/01 03:49:32;;;;;;;0.40;0.30;;;10.90;1.40;;;11.82;100.00;95248.14;647331;212;32364;-75
2022/06/01 03:52:14;;;;;;;0.45;0.35;;;10.80;1.40;;;11.81;100.00;95243.84;647011;216;31494;-74
2022/06/01 03:54:55;;;;;;;0.50;0.50;;;10.80;1.40;;;11.72;100.00;95246.64;646730;212;32080;-75
2022/06/01 03:57:37;;;;;;;0.80;0.50;;;10.80;1.40;;;11.57;100.00;95253.39;648132;216;31592;-76
2022/06/01 04:00:21;;;;;;;0.50;0.30;;;10.70;1.40;;;11.60;100.00;95254.48;646145;216;31587;-75
2022/06/01 04:03:04;;;;;;;1.00;0.30;;;10.60;1.40;;;11.64;100.00;95253.80;647866;216;31544;-75
2022/06/01 04:05:45;;;;;;;0.85;0.47;;;10.70;1.40;;;11.76;100.00;95247.72;646451;216;31590;-75
2022/06/01 04:08:27;;;;;;;0.80;0.43;;;10.90;1.40;;;11.91;100.00;95246.50;645121;216;31519;-74
2022/06/01 04:11:09;;;;;;;0.40;0.20;;;11.10;1.40;;;12.02;100.00;95251.81;646659;216;31487;-74
2022/06/01 04:13:51;;;;;;;0.60;0.40;;;11.20;1.40;;;12.12;100.00;95258.38;646605;216;31527;-74
2022/06/01 04:16:32;;;;;;;0.40;0.27;;;11.30;1.40;;;12.26;100.00;95260.39;618243;226;31892;-74
2022/06/01 04:19:14;;;;;;;0.80;0.80;;;11.40;1.40;;;12.43;100.00;95266.19;647178;212;31782;-74
2022/06/01 04:21:59;;;;;;;0.50;0.47;;;11.60;1.40;;;12.57;100.00;95270.27;618642;225;31830;-75
2022/06/01 04:24:40;;;;;;;0.52;0.50;;;11.70;1.40;;;12.70;100.00;95270.73;646231;216;33976;-75
2022/06/01 04:27:25;;;;;;;0.40;0.37;;;11.90;1.40;;;12.88;100.00;95274.38;647568;216;31497;-75
2022/06/01 04:30:10;;;;;;;0.60;0.40;;;12.00;1.40;;;12.99;100.00;95279.28;647010;212;32458;-75
2022/06/01 04:32:52;;;;;;;0.60;0.40;;;12.20;1.40;;;13.17;100.00;95283.75;646831;216;32084;-75
2022/06/01 04:35:51;;;;;;;0.60;0.60;;;12.30;1.40;;;13.37;100.00;95281.92;646003;212;31634;-75
2022/06/01 04:38:33;;;;;;;0.50;0.30;;;12.50;1.40;;;13.53;100.00;95283.59;646816;216;31513;-74
2022/06/01 04:43:52;;;;;;;0.50;0.40;;;12.80;1.40;;;13.92;100.00;95290.48;647466;212;31875;-75
2022/06/01 04:46:34;;;;;;;0.50;0.40;;;13.00;1.40;;;14.11;100.00;95292.80;646976;212;42243;-76
2022/06/01 04:49:15;;;;;;;0.60;0.60;;;13.20;1.40;;;14.23;100.00;95289.86;647017;216;42501;-75
2022/06/01 04:51:57;;;;;;;1.00;0.70;;;13.20;1.40;;;14.43;100.00;95281.80;646570;216;31504;-74
2022/06/01 04:54:42;;;;;;;0.50;0.47;;;13.30;1.40;;;14.52;100.00;95284.27;647017;212;42134;-75
2022/06/01 04:57:23;;;;;;;1.00;0.50;;;13.40;1.40;;;14.61;100.00;95286.03;629276;221;31888;-75
2022/06/01 05:00:06;;;;;;;1.30;0.57;;;13.50;1.40;;;14.68;100.00;95288.70;647110;216;31529;-75
2022/06/01 05:02:48;;;;;;;1.00;0.60;;;13.60;1.40;;;14.73;100.00;95288.75;645104;216;31516;-75
2022/06/01 05:05:30;;;;;;;0.73;0.55;;;13.70;1.40;;;14.75;100.00;95286.81;647131;216;31573;-75
2022/06/01 05:08:12;;;;;;;0.90;0.60;;;13.80;1.40;;;14.84;100.00;95285.79;646327;216;31571;-74
2022/06/01 05:10:53;;;;;;;0.70;0.70;;;13.90;1.40;;;15.17;100.00;95287.14;645465;216;31508;-74
2022/06/01 05:13:35;;;;;;;0.80;0.80;;;14.00;1.40;;;15.19;100.00;95288.83;647695;216;31473;-74
2022/06/01 05:16:17;;;;;;;0.75;0.60;;;14.00;1.40;;;15.04;100.00;95288.10;646571;212;31609;-74
2022/06/01 05:18:58;;;;;;;0.70;0.60;;;14.00;1.40;;;14.99;100.00;95289.35;646561;212;42152;-74
2022/06/01 05:21:40;;;;;;;0.60;0.60;;;14.00;1.40;;;15.00;100.00;95293.63;619349;225;31799;-75
2022/06/01 05:24:22;;;;;;;2.00;0.70;;;14.00;1.40;;;15.06;100.00;95289.19;645947;216;31493;-74
2022/06/01 05:27:04;;;;;;;1.90;0.88;;;14.00;1.40;;;15.05;100.00;95298.48;645051;216;31473;-74
2022/06/01 05:29:46;;;;;;;0.80;0.60;;;14.10;1.40;;;15.26;100.00;95290.67;646649;216;31471;-75
2022/06/01 05:32:30;;;;;;;0.60;0.60;;;14.40;1.40;;;15.40;100.00;95298.06;646146;216;32128;-75
2022/06/01 05:36:01;;;;;;;1.40;0.90;;;14.70;1.40;;;15.33;100.00;95297.83;643981;215;31528;-82
2022/06/01 05:41:23;;;;;;;1.35;0.70;;;14.80;1.40;;;15.36;100.00;95301.76;646078;213;31518;-74
2022/06/01 05:44:06;;;;;;;0.57;0.57;;;14.50;1.40;;;15.45;100.00;95298.93;646146;216;32135;-76
2022/06/01 05:46:46;;;;;;;0.70;0.60;;;14.60;1.40;;;15.46;100.00;95303.66;646834;216;31505;-75
2022/06/01 05:49:33;;;;;;;1.12;0.60;;;14.70;1.40;;;15.48;100.00;95305.15;646709;216;31543;-74
2022/06/01 05:52:18;;;;;;;0.90;0.50;;;14.60;1.40;;;15.47;100.00;95308.21;647264;216;31542;-75
2022/06/01 05:54:57;;;;;;;0.65;0.65;;;14.70;1.40;;;15.38;100.00;95307.14;647043;216;31471;-75
2022/06/01 05:57:38;;;;;;;0.88;0.82;;;14.70;1.40;;;15.32;100.00;95306.30;646938;216;31922;-75
2022/06/01 06:00:20;;;;;;;1.70;0.70;;;14.70;1.40;;;15.40;100.00;95307.82;646487;216;31636;-75
2022/06/01 06:03:02;;;;;;;1.30;0.62;;;14.90;1.40;;;15.47;100.00;95306.20;646881;212;31513;-74
2022/06/01 06:08:31;;;;;;;2.12;0.65;;;15.10;1.40;;;15.63;100.00;95306.59;616817;226;31836;-75
2022/06/01 06:11:12;;;;;;;0.55;0.40;;;15.10;1.40;;;15.78;100.00;95306.44;646064;216;31476;-75
2022/06/01 06:13:58;;;;;;;1.00;0.60;;;15.20;1.40;;;15.99;100.00;95302.62;645686;216;31572;-75
2022/06/01 06:16:42;;;;;;;0.60;0.50;;;15.40;1.40;;;16.17;100.00;95303.02;646972;216;31645;-75
2022/06/01 06:19:20;;;;;;;1.40;0.70;;;15.50;1.40;;;16.23;100.00;95305.59;646478;216;31471;-75
2022/06/01 06:22:02;;;;;;;0.80;0.52;;;15.50;1.40;;;16.38;100.00;95305.60;646828;216;31491;-75
2022/06/01 06:24:44;;;;;;;0.80;0.77;;;15.60;1.40;;;16.41;100.00;95305.22;646781;216;31642;-75
2022/06/01 06:27:27;;;;;;;1.45;0.68;;;15.60;1.40;;;16.44;100.00;95304.70;646493;212;31594;-75
2022/06/01 06:30:08;;;;;;;0.70;0.55;;;15.70;1.40;;;16.55;100.00;95303.66;645212;216;31589;-76
2022/06/01 06:32:50;;;;;;;1.25;0.60;;;15.80;1.40;;;16.71;100.00;95301.23;646178;216;42912;-75
2022/06/01 06:35:57;;;;;;;0.60;0.50;;;16.00;1.40;;;16.89;100.00;95303.77;645788;216;31634;-75
2022/06/01 06:38:39;;;;;;;0.80;0.80;;;16.20;1.40;;;16.94;100.00;95310.73;645655;216;31481;-75
2022/06/01 06:41:24;;;;;;;0.90;0.70;;;16.20;1.40;;;17.19;100.00;95309.22;615685;224;31818;-75
2022/06/01 06:44:05;;;;;;;0.90;0.60;;;16.40;1.40;;;17.16;100.00;95310.16;619423;223;31868;-75
2022/06/01 06:46:50;;;;;;;0.68;0.52;;;16.40;1.40;;;17.14;100.00;95306.53;645374;216;32019;-75
2022/06/01 06:49:32;;;;;;;0.70;0.70;;;16.40;1.40;;;17.15;100.00;95302.95;646559;212;31717;-76
2022/06/01 06:52:13;;;;;;;0.70;0.60;;;16.40;1.40;;;17.35;100.00;95303.59;646750;212;31534;-75
2022/06/01 06:54:56;;;;;;;0.52;0.52;;;16.60;1.40;;;17.34;100.00;95300.42;618863;226;31831;-75
2022/06/01 06:57:37;;;;;;;1.40;0.70;;;16.50;1.40;;;17.48;100.00;95307.19;645860;216;31525;-75
2022/06/01 07:00:19;;;;;;;0.50;0.50;;;16.70;1.40;;;17.56;100.00;95307.33;646541;216;31514;-75
2022/06/01 07:03:00;;;;;;;0.95;0.50;;;16.80;1.40;;;17.72;100.00;95303.31;646038;216;31520;-75
2022/06/01 07:08:46;;;;;;;2.60;0.70;;;16.90;1.40;;;17.88;100.00;95304.55;645048;216;32387;-75
2022/06/01 07:11:28;;;;;;;0.80;0.50;;;17.10;1.40;;;18.00;100.00;95299.75;647694;216;31607;-75
2022/06/01 07:14:09;;;;;;;1.00;0.50;;;17.20;1.40;;;17.99;100.00;95295.22;646316;212;31494;-75
2022/06/01 07:16:51;;;;;;;0.85;0.77;;;17.30;1.40;;;17.98;100.00;95296.25;645723;216;31500;-75
2022/06/01 07:19:33;;;;;;;2.50;0.50;;;17.30;1.40;;;18.14;100.00;95298.05;647614;216;32113;-75
2022/06/01 07:22:15;;;;;;;1.20;0.60;;;17.40;1.40;;;18.30;100.00;95298.16;619604;226;32000;-75
2022/06/01 07:24:56;;;;;;;1.10;0.70;;;17.60;1.40;;;18.29;100.00;95292.15;646411;216;31549;-75
2022/06/01 07:27:38;;;;;;;0.60;0.50;;;17.50;1.40;;;18.52;100.00;95293.84;646359;216;31462;-75
2022/06/01 07:30:19;;;;;;;1.17;0.80;;;17.80;1.40;;;18.71;100.00;95292.09;646707;216;31475;-75
2022/06/01 07:35:51;;;;;;;0.80;0.70;;;18.00;1.40;;;18.73;100.00;95294.84;646503;216;31724;-75
2022/06/01 07:44:10;;;;;;;0.68;0.60;;;17.80;1.40;;;18.79;99.51;95290.91;646425;216;31572;-75
2022/06/01 07:46:52;;;;;;;0.60;0.60;;;18.10;1.40;;;18.89;100.00;95287.45;645528;216;31938;-75
2022/06/01 07:49:34;;;;;;;1.00;0.50;;;18.20;1.40;;;18.94;97.08;95287.03;647735;216;31501;-75
2022/06/01 07:52:15;;;;;;;0.60;0.60;;;18.10;1.40;;;18.90;93.54;95290.91;646028;216;31467;-76
2022/06/01 07:54:57;;;;;;;1.30;0.77;;;18.10;1.40;;;18.87;91.81;95288.69;646865;216;31693;-76
2022/06/01 07:57:39;;;;;;;0.77;0.75;;;18.10;1.40;;;19.13;94.79;95294.36;647046;216;31474;-75
2022/06/01 08:00:21;;;;;;;0.88;0.60;;;18.40;1.40;;;19.38;93.78;95289.77;646038;216;31486;-75
2022/06/01 08:03:03;;;;;;;0.70;0.70;;;18.70;1.40;;;19.54;93.46;95290.61;645199;212;31508;-76
2022/06/01 08:05:44;;;;;;;1.60;0.60;;;18.90;1.40;;;19.33;83.23;95284.36;619591;226;31805;-75
2022/06/01 08:08:26;;;;;;;1.60;0.70;;;18.60;1.40;;;19.40;84.40;95282.30;618030;225;31907;-75
2022/06/01 08:11:07;;;;;;;0.93;0.80;;;18.60;1.40;;;19.53;82.01;95282.66;646986;216;31556;-75
2022/06/01 08:13:49;;;;;;;0.80;0.80;;;18.90;1.40;;;19.59;81.55;95276.72;645402;212;31868;-76
2022/06/01 08:16:31;;;;;;;0.87;0.67;;;18.90;1.40;;;19.72;79.42;95284.84;646447;216;42149;-75
2022/06/01 08:19:13;;;;;;;0.80;0.68;;;19.00;1.40;;;19.86;79.14;95283.30;646086;216;42107;-74
2022/06/01 08:21:54;;;;;;;1.67;0.52;;;19.20;1.40;;;19.92;77.52;95283.45;642615;215;31480;-75
2022/06/01 08:24:36;;;;;;;1.10;0.60;;;19.10;1.40;;;20.17;81.98;95284.44;647557;216;31486;-75
2022/06/01 08:27:18;;;;;;;0.70;0.60;;;19.40;1.40;;;20.11;78.62;95280.44;620336;222;31807;-75
2022/06/01 08:29:59;;;;;;;2.70;0.93;;;19.30;1.40;;;20.18;75.89;95274.52;619275;226;31888;-75
2022/06/01 08:32:41;;;;;;;1.10;0.60;;;19.20;1.40;;;20.23;78.12;95275.14;646425;216;31471;-75
2022/06/01 08:36:16;;;;;;;0.68;0.68;;;19.50;1.40;;;20.53;75.24;95280.73;647496;216;31687;-75
2022/06/01 08:38:58;;;;;;;1.20;0.60;;;19.70;1.40;;;20.57;71.87;95285.53;646421;216;31501;-75
2022/06/01 08:41:43;;;;;;;1.52;0.70;;;19.60;1.40;;;20.67;69.40;95293.60;646668;216;31785;-75
2022/06/01 08:44:25;;;;;;;1.10;1.00;;;19.80;1.40;;;20.56;64.37;95284.75;646734;212;31508;-76
2022/06/01 08:47:07;;;;;;;1.30;0.60;;;19.70;1.40;;;20.88;66.33;95284.07;645919;216;31504;-74
2022/06/01 08:49:49;;;;;;;0.90;0.80;;;20.10;1.40;;;21.12;66.91;95275.30;646593;212;43146;-76
2022/06/01 08:52:31;;;;;;;1.92;0.90;;;20.30;1.40;;;20.98;65.00;95277.27;646924;212;32282;-75
2022/06/01 08:55:17;;;;;;;0.60;0.60;;;20.20;1.40;;;21.40;67.39;95273.30;647092;216;31718;-75
2022/06/01 08:57:57;;;;;;;1.55;0.82;;;20.60;1.40;;;21.59;65.33;95271.74;647073;216;32133;-75
2022/06/01 09:00:39;;;;;;;0.80;0.80;;;20.80;1.40;;;21.68;63.65;95266.64;646606;216;31546;-76
2022/06/01 09:03:24;;;;;;;0.80;0.70;;;20.70;1.40;;;22.10;64.95;95263.15;647265;216;42104;-76
2022/06/01 09:06:11;;;;;;;1.00;0.70;;;21.10;1.40;;;21.73;61.21;95264.64;645655;216;31549;-75
2022/06/01 09:11:32;;;;;;;0.77;0.70;;;21.20;1.40;;;22.75;64.00;95260.20;646208;216;31507;-75
2022/06/01 09:14:17;;;;;;;0.80;0.70;;;21.90;1.40;;;22.51;59.82;95262.05;647522;216;31489;-76
2022/06/01 09:16:59;;;;;;;1.40;1.00;;;21.30;1.40;;;22.42;62.38;95258.61;647031;216;31543;-76
2022/06/01 09:25:15;;;;;;;1.45;1.10;;;21.60;1.40;;;22.50;58.55;95274.91;619354;226;31785;-76
2022/06/01 09:28:00;;;;;;;4.05;1.10;;;20.90;1.40;;;21.81;58.70;95264.75;647132;216;31549;-77
2022/06/01 09:30:39;;;;;;;1.00;0.90;;;21.70;1.40;;;24.35;56.76;95261.32;647090;216;31572;-76
2022/06/01 09:38:49;;;;;;;2.65;0.88;;;21.10;1.40;;;22.66;58.65;95256.89;646167;216;31517;-76
2022/06/01 09:41:31;;;;;;;1.10;0.80;;;22.70;1.40;;;23.66;56.21;95250.88;619502;225;31812;-75
2022/06/01 09:44:15;;;;;;;2.22;0.80;;;22.70;1.40;;;23.09;55.66;95262.40;617994;226;31824;-76
2022/06/01 09:46:54;;;;;;;2.22;1.02;;;22.60;1.40;;;25.28;51.92;95259.30;646314;212;31536;-76
2022/06/01 09:49:42;;;;;;;0.80;0.70;;;25.30;1.40;;;25.16;51.63;95254.89;646868;216;31649;-76
2022/06/01 09:55:00;;;;;;;4.00;1.00;;;22.40;1.40;;;24.08;53.32;95265.23;645933;216;42184;-76
2022/06/01 09:57:42;;;;;;;1.10;0.98;;;22.30;1.40;;;23.91;54.00;95271.78;647978;216;31711;-76
2022/06/01 10:08:56;;;;;;;1.20;0.80;;;21.70;1.40;;;22.67;56.69;95271.08;642438;216;31641;-75
2022/06/01 10:11:40;;;;;;;1.70;1.00;;;21.30;1.40;;;22.93;56.64;95274.41;646526;216;31495;-76
2022/06/01 10:14:31;;;;;;;1.30;0.70;;;21.20;1.40;;;23.23;56.70;95268.38;646237;216;31894;-76
2022/06/01 10:17:15;;;;;;;1.20;0.80;;;21.60;1.40;;;23.40;53.34;95267.48;646939;216;32177;-76
2022/06/01 10:20:05;;;;;;;1.30;0.60;;;21.70;1.40;;;23.45;54.12;95266.94;646241;216;42256;-77
2022/06/01 10:22:53;;;;;;;3.17;0.75;;;21.80;1.40;;;23.57;54.85;95273.94;646803;216;42300;-76
2022/06/01 10:25:55;;;;;;;1.12;0.90;;;21.90;1.40;;;23.39;53.12;95272.80;646827;216;31481;-76
2022/06/01 10:28:40;;;;;;;0.75;0.70;;;21.50;1.40;;;23.34;52.87;95277.77;619033;226;31793;-76
2022/06/01 10:31:26;;;;;;;1.00;0.82;;;21.50;1.40;;;23.03;53.55;95275.23;647260;216;31559;-76
2022/06/01 10:35:57;;;;;;;1.37;0.75;;;20.50;1.40;;;22.01;57.16;95278.10;646276;216;31759;-76
2022/06/01 10:38:41;;;;;;;0.65;0.60;;;20.80;1.40;;;22.34;58.86;95282.09;647465;212;34938;-75
2022/06/01 10:41:29;;;;;;;0.95;0.82;;;21.00;1.40;;;22.00;57.85;95286.02;647352;216;31545;-76
2022/06/01 10:44:18;;;;;;;1.10;0.80;;;20.80;1.40;;;23.04;55.04;95278.37;645868;212;31845;-75
2022/06/01 10:47:16;;;;;;;1.40;0.80;;;22.00;1.40;;;23.85;51.84;95273.30;646741;216;31541;-77
2022/06/01 10:50:07;;;;;;;0.90;0.60;;;22.60;1.40;;;23.49;52.87;95277.31;646175;216;42649;-76
2022/06/01 10:52:59;;;;;;;1.35;0.77;;;22.30;1.40;;;23.79;49.70;95276.63;647335;212;32059;-76
2022/06/01 10:55:51;;;;;;;2.20;0.80;;;22.90;1.40;;;25.70;48.47;95273.22;645718;216;31529;-76
2022/06/01 10:58:39;;;;;;;0.90;0.70;;;24.70;1.40;;;26.25;48.59;95271.48;644355;216;37361;-83
2022/06/01 11:01:32;;;;;;;0.80;0.70;;;24.80;1.40;;;27.90;43.71;95261.80;647926;216;31702;-76
2022/06/01 11:04:33;;;;;;;2.22;1.00;;;25.80;1.40;;;27.44;43.67;95263.20;646425;216;32292;-76
2022/06/01 11:10:11;;;;;;;1.27;1.10;;;23.80;1.40;;;25.59;47.35;95268.77;635586;212;31698;-76
2022/06/01 11:13:23;;;;;;;4.70;1.00;;;23.80;1.40;;;25.98;45.66;95264.17;646354;215;31477;-76
2022/06/01 11:16:21;;;;;;;1.85;0.68;;;23.70;1.40;;;24.89;48.50;95272.25;619858;226;31802;-76
2022/06/01 11:19:08;;;;;;;1.20;0.50;;;22.90;1.40;;;24.40;47.86;95258.56;646557;212;31472;-76
2022/06/01 11:25:05;;;;;;;1.90;0.70;;;22.00;1.40;;;24.67;47.67;95265.86;646478;212;33402;-76
2022/06/01 11:28:27;;;;;;;2.00;0.77;;;23.80;1.40;;;24.66;48.19;95270.08;647645;216;31528;-76
2022/06/01 11:31:15;;;;;;;1.00;0.70;;;22.70;1.40;;;23.87;49.41;95265.14;646284;216;31773;-76
2022/06/01 11:36:12;;;;;;;0.90;0.50;;;21.50;99.90;;;23.50;50.54;95257.56;646946;216;31535;-75
2022/06/01 11:38:55;;;;;;;1.52;0.80;;;23.10;1.40;;;25.79;45.47;95245.84;647347;212;31606;-77
2022/06/01 11:41:37;;;;;;;0.60;0.50;;;24.40;1.40;;;26.52;43.88;95252.89;618696;226;31918;-75
2022/06/01 11:44:19;;;;;;;1.35;0.98;;;25.40;1.40;;;27.39;43.29;95239.76;647100;216;31471;-76
2022/06/01 11:47:02;;;;;;;3.40;1.15;;;26.30;1.40;;;26.97;42.08;95233.81;646395;216;31521;-76
2022/06/01 11:49:44;;;;;;;2.12;0.90;;;25.30;1.40;;;28.16;41.59;95235.92;646648;216;31481;-76
2022/06/01 11:52:44;;;;;;;1.77;0.90;;;25.20;1.40;;;28.22;44.64;95243.09;646335;216;31544;-76
2022/06/01 11:55:43;;;;;;;1.20;0.77;;;25.50;1.40;;;25.92;45.12;95244.63;647816;212;31531;-76
2022/06/01 11:58:45;;;;;;;1.00;0.70;;;23.80;1.40;;;25.65;47.54;95244.79;646844;216;31497;-77
2022/06/01 12:01:35;;;;;;;0.93;0.83;;;24.20;1.40;;;24.54;45.51;95246.41;647342;216;31541;-77
2022/06/01 12:04:53;;;;;;;1.20;0.88;;;22.70;1.40;;;25.86;46.24;95242.15;647976;216;42168;-76
2022/06/01 12:07:35;;;;;;;0.80;0.60;;;24.80;1.40;;;25.98;43.97;95230.39;647163;216;42680;-76
2022/06/01 12:13:05;;;;;;;1.85;1.20;;;23.50;1.40;;;24.25;47.39;95240.77;645519;216;31760;-77
2022/06/01 12:16:20;;;;;;;1.17;0.90;;;22.60;1.40;;;23.43;50.58;95239.88;646101;216;42165;-76
2022/06/01 12:19:12;;;;;;;0.77;0.77;;;22.10;1.40;;;23.57;50.66;95239.77;646868;216;31485;-77
2022/06/01 12:21:54;;;;;;;1.58;0.90;;;22.20;1.40;;;23.85;51.39;95235.98;646702;216;31565;-76
2022/06/01 12:30:25;;;;;;;2.20;0.80;;;22.50;1.40;;;24.41;49.67;95228.53;647229;212;31499;-76
2022/06/01 12:35:52;;;;;;;1.53;0.80;;;23.30;1.40;;;24.32;51.81;95222.12;646303;216;31514;-76
2022/06/01 12:38:34;;;;;;;0.98;0.70;;;22.70;1.40;;;24.22;49.95;95219.35;646650;216;32702;-76
2022/06/01 12:41:16;;;;;;;1.10;1.00;;;22.50;1.40;;;24.10;51.26;95214.81;646785;216;31525;-76
2022/06/01 12:44:00;;;;;;;0.75;0.70;;;22.70;1.40;;;25.13;49.78;95213.09;645744;216;31492;-77
2022/06/01 12:46:43;;;;;;;1.00;0.90;;;23.50;1.40;;;24.67;49.29;95218.34;646865;216;31514;-78
2022/06/01 12:49:33;;;;;;;0.60;0.60;;;22.80;1.40;;;25.13;48.33;95214.25;646547;212;31519;-76
2022/06/01 12:52:12;;;;;;;2.10;0.80;;;23.00;1.40;;;23.97;50.61;95215.37;647782;216;42324;-76
2022/06/01 12:54:58;;;;;;;1.40;0.82;;;22.10;1.40;;;23.77;51.24;95213.47;645787;216;31957;-76
2022/06/01 12:57:43;;;;;;;2.20;0.70;;;22.40;1.40;;;23.78;52.56;95211.86;647361;216;31532;-76
2022/06/01 13:00:26;;;;;;;1.30;0.70;;;22.50;1.40;;;24.07;49.64;95215.95;647042;212;31530;-76